Time;durP1;ratioP1;P1;durP2;ratioP2;P2;SDS_P1;SDS_P2;PMS_P1;PMS_P2;Temp;Humidity;BMP_temperature;BMP_pressure;BME280_temperature;BME280_humidity;BME280_pressure;Samples;Min_cycle;Max_cycle;Signal;HPM_P1;HPM_P2
2021/12/04 00:00:35;;;;;;;12.37;9.27;;;4.40;99.90;;;;;;5027885;28;20836;-43
2021/12/04 00:03:01;;;;;;;11.60;8.97;;;4.40;99.90;;;;;;5024358;28;20319;-43
2021/12/04 00:05:28;;;;;;;12.83;8.47;;;4.50;99.90;;;;;;5018060;28;20508;-43
2021/12/04 00:07:56;;;;;;;14.50;9.37;;;4.50;99.90;;;;;;5016397;28;20689;-43
2021/12/04 00:10:27;;;;;;;12.00;8.50;;;4.50;99.90;;;;;;5029772;28;20211;-43
2021/12/04 00:12:56;;;;;;;10.93;8.77;;;4.40;99.90;;;;;;5024539;28;21171;-44
2021/12/04 00:15:22;;;;;;;11.87;8.63;;;4.50;99.90;;;;;;5017825;28;20672;-44
2021/12/04 00:17:49;;;;;;;12.07;8.60;;;4.50;99.90;;;;;;5036736;28;20373;-43
2021/12/04 00:20:16;;;;;;;11.97;8.93;;;4.50;99.90;;;;;;5027804;28;20221;-43
2021/12/04 00:22:43;;;;;;;12.50;9.00;;;4.50;99.90;;;;;;5009600;28;20222;-43
2021/12/04 00:25:11;;;;;;;11.03;8.37;;;4.50;99.90;;;;;;5024349;28;20208;-44
2021/12/04 00:27:38;;;;;;;14.13;8.77;;;4.50;99.90;;;;;;5032396;28;20215;-44
2021/12/04 00:30:09;;;;;;;12.83;9.00;;;4.50;99.90;;;;;;5023817;28;20236;-43
2021/12/04 00:32:40;;;;;;;12.07;8.87;;;4.50;99.90;;;;;;5040575;28;20257;-44
2021/12/04 00:35:13;;;;;;;13.47;9.27;;;4.50;99.90;;;;;;5013084;28;20522;-43
2021/12/04 00:43:13;;;;;;;12.60;9.47;;;4.50;99.90;;;;;;5030060;28;20208;-44
2021/12/04 00:49:24;;;;;;;12.77;9.73;;;4.50;99.90;;;;;;5042208;28;20392;-43
2021/12/04 00:51:54;;;;;;;12.30;9.70;;;4.50;99.90;;;;;;5021286;28;20314;-44
2021/12/04 00:54:22;;;;;;;14.27;10.83;;;4.50;99.90;;;;;;5026990;28;20365;-44
2021/12/04 00:56:49;;;;;;;15.30;10.60;;;4.50;99.90;;;;;;5026425;28;20480;-43
2021/12/04 00:59:16;;;;;;;13.90;11.20;;;4.50;99.90;;;;;;5038362;28;20200;-44
2021/12/04 01:01:45;;;;;;;16.03;11.10;;;4.50;99.90;;;;;;5012942;28;20212;-43
2021/12/04 01:04:13;;;;;;;17.37;11.50;;;4.50;99.90;;;;;;5039544;28;20228;-44
2021/12/04 01:06:40;;;;;;;14.23;10.70;;;4.50;99.90;;;;;;5037866;28;20204;-43
2021/12/04 01:09:09;;;;;;;13.57;10.67;;;4.50;99.90;;;;;;5022230;28;20198;-43
2021/12/04 01:11:37;;;;;;;15.33;10.60;;;4.50;99.90;;;;;;5022715;28;20230;-43
2021/12/04 01:14:04;;;;;;;15.37;10.03;;;4.50;99.90;;;;;;5026959;28;20464;-43
2021/12/04 01:16:31;;;;;;;16.07;10.70;;;4.50;99.90;;;;;;5022098;28;20576;-44
2021/12/04 01:19:00;;;;;;;15.93;11.27;;;4.50;99.90;;;;;;5038107;28;20600;-44
2021/12/04 01:21:27;;;;;;;17.93;10.80;;;4.50;99.90;;;;;;5032588;28;20722;-44
2021/12/04 01:23:54;;;;;;;17.27;10.97;;;4.50;99.90;;;;;;5021253;28;20546;-44
2021/12/04 01:26:21;;;;;;;14.03;10.57;;;4.50;99.90;;;;;;5028329;28;20727;-44
2021/12/04 01:28:48;;;;;;;14.93;11.33;;;4.50;99.90;;;;;;5020628;28;20692;-43
2021/12/04 01:31:15;;;;;;;16.73;11.40;;;4.50;99.90;;;;;;5022537;28;20220;-43
2021/12/04 01:33:42;;;;;;;15.77;11.37;;;4.50;99.90;;;;;;5038853;28;20212;-43
2021/12/04 01:36:10;;;;;;;12.40;9.97;;;4.50;99.90;;;;;;5030467;28;20213;-39
2021/12/04 01:38:38;;;;;;;14.87;11.10;;;4.50;99.90;;;;;;5025199;28;20233;-39
2021/12/04 01:41:05;;;;;;;16.83;10.47;;;4.50;99.90;;;;;;5021231;28;20347;-40
2021/12/04 01:43:32;;;;;;;13.27;10.07;;;4.50;99.90;;;;;;5023317;28;20263;-39
2021/12/04 01:45:59;;;;;;;14.13;10.20;;;4.50;99.90;;;;;;5011929;28;20687;-40
2021/12/04 01:48:27;;;;;;;13.50;10.80;;;4.50;99.90;;;;;;5044634;28;20920;-40
2021/12/04 01:50:55;;;;;;;16.57;10.87;;;4.50;99.90;;;;;;5045439;28;20503;-39
2021/12/04 01:53:24;;;;;;;13.47;10.27;;;4.50;99.90;;;;;;5023695;28;20429;-39
2021/12/04 01:55:53;;;;;;;15.73;10.23;;;4.50;99.90;;;;;;5036861;28;20205;-39
2021/12/04 01:58:21;;;;;;;13.87;10.23;;;4.50;99.90;;;;;;5025788;28;20212;-40
2021/12/04 02:00:48;;;;;;;13.53;10.30;;;4.60;99.90;;;;;;5033497;28;20235;-41
2021/12/04 02:03:17;;;;;;;14.57;10.10;;;4.60;99.90;;;;;;5030693;28;20868;-41
2021/12/04 02:05:45;;;;;;;16.30;10.67;;;4.50;99.90;;;;;;5046321;28;20197;-41
2021/12/04 02:08:14;;;;;;;14.63;10.07;;;4.50;99.90;;;;;;5027963;28;20213;-41
2021/12/04 02:10:44;;;;;;;14.17;10.30;;;4.50;99.90;;;;;;5031904;28;20236;-41
2021/12/04 02:13:11;;;;;;;14.87;10.23;;;4.50;99.90;;;;;;5029311;28;20222;-41
2021/12/04 02:15:37;;;;;;;14.67;10.47;;;4.50;99.90;;;;;;5030442;28;20212;-41
2021/12/04 02:18:05;;;;;;;16.60;11.27;;;4.50;99.90;;;;;;5032154;28;21565;-41
2021/12/04 02:20:34;;;;;;;17.23;11.30;;;4.50;99.90;;;;;;5036592;28;20214;-41
2021/12/04 02:23:03;;;;;;;18.13;11.53;;;4.50;99.90;;;;;;5044746;28;20225;-41
2021/12/04 02:25:30;;;;;;;19.90;11.77;;;4.50;99.90;;;;;;5024844;28;20207;-41
2021/12/04 02:27:57;;;;;;;18.03;10.93;;;4.50;99.90;;;;;;5024560;28;20205;-41
2021/12/04 02:30:25;;;;;;;14.50;10.83;;;4.50;99.90;;;;;;5016544;28;20213;-41
2021/12/04 02:32:54;;;;;;;16.10;11.10;;;4.50;99.90;;;;;;5022425;28;20229;-41
2021/12/04 02:35:22;;;;;;;16.23;10.87;;;4.50;99.90;;;;;;5030304;28;20201;-46
2021/12/04 02:37:50;;;;;;;15.60;10.40;;;4.50;99.90;;;;;;5041995;28;20206;-47
2021/12/04 02:40:21;;;;;;;15.00;10.57;;;4.50;99.90;;;;;;5011899;28;20702;-46
2021/12/04 02:42:48;;;;;;;18.17;12.23;;;4.50;99.90;;;;;;5032261;28;20691;-46
2021/12/04 02:45:16;;;;;;;16.57;11.93;;;4.50;99.90;;;;;;5031926;28;20225;-46
2021/12/04 02:47:43;;;;;;;17.13;12.27;;;4.50;99.90;;;;;;5035300;28;20212;-47
2021/12/04 02:50:12;;;;;;;19.27;12.07;;;4.50;99.90;;;;;;5029518;28;20407;-46
2021/12/04 02:52:39;;;;;;;21.63;13.03;;;4.50;99.90;;;;;;5034792;28;20311;-46
2021/12/04 02:55:08;;;;;;;19.20;12.60;;;4.50;99.90;;;;;;5038748;28;20837;-47
2021/12/04 02:57:40;;;;;;;23.33;13.60;;;4.50;99.90;;;;;;5036941;28;20447;-45
2021/12/04 03:00:08;;;;;;;20.30;12.60;;;4.50;99.90;;;;;;5025274;28;20615;-47
2021/12/04 03:02:35;;;;;;;17.60;11.77;;;4.50;99.90;;;;;;5040729;28;20335;-45
2021/12/04 03:05:06;;;;;;;19.60;12.83;;;4.50;99.90;;;;;;5020029;28;20254;-46
2021/12/04 03:07:33;;;;;;;21.17;12.10;;;4.50;99.90;;;;;;5037380;28;20504;-46
2021/12/04 03:10:00;;;;;;;20.20;12.07;;;4.50;99.90;;;;;;5012401;28;20216;-47
2021/12/04 03:12:30;;;;;;;19.13;13.13;;;4.50;99.90;;;;;;5034126;28;20559;-46
2021/12/04 03:14:57;;;;;;;19.90;11.57;;;4.50;99.90;;;;;;5028309;28;20209;-46
2021/12/04 03:17:25;;;;;;;14.03;10.13;;;4.50;99.90;;;;;;5018477;28;20362;-41
2021/12/04 03:19:53;;;;;;;13.67;10.23;;;4.50;99.90;;;;;;5025200;28;20204;-41
2021/12/04 03:22:22;;;;;;;16.80;10.00;;;4.50;99.90;;;;;;5025725;28;20558;-41
2021/12/04 03:24:49;;;;;;;17.10;10.80;;;4.50;99.90;;;;;;5036253;28;20225;-41
2021/12/04 03:27:18;;;;;;;15.70;10.27;;;4.50;99.90;;;;;;5021944;28;20309;-41
2021/12/04 03:29:54;;;;;;;16.70;10.60;;;4.60;99.90;;;;;;5028790;28;20619;-41
2021/12/04 03:40:55;;;;;;;17.73;10.97;;;4.50;99.90;;;;;;5024954;28;20211;-41
2021/12/04 03:43:22;;;;;;;16.97;11.17;;;4.50;99.90;;;;;;5021531;28;20232;-41
2021/12/04 03:45:56;;;;;;;17.20;10.77;;;4.50;99.90;;;;;;5024514;28;20647;-44
2021/12/04 03:51:08;;;;;;;15.30;10.23;;;4.50;99.90;;;;;;5035453;28;20726;-44
2021/12/04 03:53:35;;;;;;;14.43;10.07;;;4.50;99.90;;;;;;5037001;28;20717;-44
2021/12/04 03:56:03;;;;;;;15.73;10.37;;;4.50;99.90;;;;;;5020117;28;20205;-44
2021/12/04 03:58:30;;;;;;;14.47;10.30;;;4.50;99.90;;;;;;5012473;28;20200;-44
2021/12/04 04:00:58;;;;;;;12.10;9.30;;;4.50;99.90;;;;;;5018156;28;21593;-44
2021/12/04 04:03:27;;;;;;;12.77;9.90;;;4.50;99.90;;;;;;5032039;28;20715;-44
2021/12/04 04:05:54;;;;;;;14.43;9.80;;;4.50;99.90;;;;;;5037017;28;20259;-44
2021/12/04 04:08:21;;;;;;;12.40;9.10;;;4.60;99.90;;;;;;4994660;28;20220;-44
2021/12/04 04:10:49;;;;;;;15.57;9.57;;;4.50;99.90;;;;;;5019875;28;20202;-44
2021/12/04 04:13:16;;;;;;;15.10;10.17;;;4.50;99.90;;;;;;5038938;28;20328;-43
2021/12/04 04:15:43;;;;;;;13.03;9.30;;;4.60;99.90;;;;;;5024056;28;20213;-44
2021/12/04 04:18:11;;;;;;;14.87;9.77;;;4.50;99.90;;;;;;5025435;28;20568;-44
2021/12/04 04:20:38;;;;;;;13.80;9.50;;;4.50;99.90;;;;;;5031769;28;20218;-43
2021/12/04 04:23:05;;;;;;;14.50;10.13;;;4.50;99.90;;;;;;5028182;28;20437;-44
2021/12/04 04:25:32;;;;;;;15.60;9.97;;;4.50;99.90;;;;;;5049622;28;20294;-43
2021/12/04 04:27:59;;;;;;;15.23;9.87;;;4.50;99.90;;;;;;5031785;28;20212;-41
2021/12/04 04:30:26;;;;;;;14.43;10.07;;;4.50;99.90;;;;;;5021997;28;20217;-41
2021/12/04 04:32:54;;;;;;;14.23;9.67;;;4.60;99.90;;;;;;4996796;28;20461;-41
2021/12/04 04:35:25;;;;;;;15.07;10.13;;;4.50;99.90;;;;;;5040349;28;20691;-41
2021/12/04 04:37:59;;;;;;;16.97;10.90;;;4.50;99.90;;;;;;5024235;28;20413;-41
2021/12/04 05:00:01;;;;;;;20.53;12.50;;;4.60;99.90;;;;;;4977307;28;20207;-44
2021/12/04 05:10:04;;;;;;;16.47;11.47;;;4.50;99.90;;;;;;5018469;28;20338;-44
2021/12/04 05:11:15;;;;;;;18.50;11.77;;;4.50;99.90;;;;;;5039019;28;20749;-44
2021/12/04 05:13:42;;;;;;;16.57;11.00;;;4.60;99.90;;;;;;5010409;28;20229;-44
2021/12/04 05:16:17;;;;;;;17.40;11.30;;;4.50;99.90;;;;;;5033545;28;20208;-43
2021/12/04 05:18:53;;;;;;;15.13;10.93;;;4.50;99.90;;;;;;5019928;28;20574;-39
2021/12/04 05:21:20;;;;;;;17.90;11.63;;;4.60;99.90;;;;;;5036302;28;20216;-39
2021/12/04 05:23:52;;;;;;;16.83;12.17;;;4.50;99.90;;;;;;5020534;28;20696;-39
2021/12/04 05:26:21;;;;;;;18.57;13.03;;;4.60;99.90;;;;;;5039201;28;20215;-40
2021/12/04 05:28:48;;;;;;;17.80;12.10;;;4.60;99.90;;;;;;5037630;28;21501;-40
2021/12/04 05:31:15;;;;;;;20.07;13.23;;;4.60;99.90;;;;;;5032827;28;20428;-39
2021/12/04 05:33:42;;;;;;;21.17;12.70;;;4.60;99.90;;;;;;5027689;28;22122;-39
2021/12/04 05:36:10;;;;;;;18.73;12.83;;;4.60;99.90;;;;;;5017018;28;20725;-40
2021/12/04 05:38:38;;;;;;;19.27;12.70;;;4.60;99.90;;;;;;5006691;28;20993;-39
2021/12/04 05:41:07;;;;;;;19.47;13.00;;;4.60;99.90;;;;;;5026728;28;20878;-40
2021/12/04 05:43:34;;;;;;;20.30;13.47;;;4.60;99.90;;;;;;5017327;28;20228;-39
2021/12/04 05:46:08;;;;;;;20.23;14.60;;;4.60;99.90;;;;;;5029545;28;20808;-39
2021/12/04 05:48:43;;;;;;;20.40;13.33;;;4.60;99.90;;;;;;5025383;28;20204;-39
2021/12/04 05:54:01;;;;;;;22.93;14.13;;;4.60;99.90;;;;;;5021651;28;20534;-40
2021/12/04 05:56:31;;;;;;;22.07;14.20;;;4.50;99.90;;;;;;5027225;28;20211;-39
2021/12/04 05:58:58;;;;;;;21.87;14.50;;;4.60;99.90;;;;;;5021719;28;20646;-40
2021/12/04 06:01:26;;;;;;;24.40;15.23;;;4.50;99.90;;;;;;5027592;28;20379;-45
2021/12/04 06:03:53;;;;;;;21.43;14.43;;;4.50;99.90;;;;;;5042694;28;20726;-47
2021/12/04 06:06:20;;;;;;;24.40;15.97;;;4.60;99.90;;;;;;5015018;28;20233;-47
2021/12/04 06:08:47;;;;;;;23.23;15.43;;;4.50;99.90;;;;;;5021258;28;20431;-46
2021/12/04 06:11:15;;;;;;;20.80;14.23;;;4.60;99.90;;;;;;5021332;28;20539;-47
2021/12/04 06:13:43;;;;;;;23.57;14.97;;;4.60;99.90;;;;;;5030555;28;20546;-46
2021/12/04 06:16:10;;;;;;;25.67;16.43;;;4.60;99.90;;;;;;5032769;28;20695;-46
2021/12/04 06:18:37;;;;;;;27.40;16.43;;;4.50;99.90;;;;;;5044519;28;20207;-45
2021/12/04 06:23:48;;;;;;;22.20;15.07;;;4.60;99.90;;;;;;5021073;28;20285;-47
2021/12/04 06:26:15;;;;;;;24.87;15.70;;;4.60;99.90;;;;;;5032166;28;21512;-47
2021/12/04 06:28:44;;;;;;;27.20;16.10;;;4.60;99.90;;;;;;5034748;28;20291;-46
2021/12/04 06:31:11;;;;;;;24.37;15.23;;;4.60;99.90;;;;;;5024086;28;20205;-46
2021/12/04 06:33:40;;;;;;;25.03;15.27;;;4.60;99.90;;;;;;5034777;28;20225;-46
2021/12/04 06:36:08;;;;;;;24.77;15.87;;;4.60;99.90;;;;;;5028139;28;20213;-47
2021/12/04 06:38:35;;;;;;;27.90;17.07;;;4.50;99.90;;;;;;5029956;28;20213;-46
2021/12/04 06:41:03;;;;;;;24.20;16.37;;;4.50;99.90;;;;;;5037943;28;20209;-46
2021/12/04 06:43:31;;;;;;;25.10;15.97;;;4.50;99.90;;;;;;5029768;28;20408;-46
2021/12/04 06:46:01;;;;;;;27.40;16.33;;;4.50;99.90;;;;;;5024128;28;20417;-46
2021/12/04 06:48:36;;;;;;;25.37;17.00;;;4.50;99.90;;;;;;5046658;28;20206;-46
2021/12/04 06:51:08;;;;;;;26.37;15.97;;;4.50;99.90;;;;;;5031339;28;20310;-46
2021/12/04 06:53:38;;;;;;;25.93;16.70;;;4.50;99.90;;;;;;5041643;28;20224;-47
2021/12/04 06:56:07;;;;;;;29.00;17.67;;;4.50;99.90;;;;;;5021396;28;20682;-47
2021/12/04 06:58:35;;;;;;;28.37;17.70;;;4.50;99.90;;;;;;5015636;28;20290;-47
2021/12/04 07:01:04;;;;;;;28.27;17.73;;;4.50;99.90;;;;;;5011271;28;20854;-46
2021/12/04 07:03:31;;;;;;;32.13;18.90;;;4.50;99.90;;;;;;5008363;28;20246;-47
2021/12/04 07:05:57;;;;;;;31.33;18.23;;;4.50;99.90;;;;;;5024483;28;20769;-47
2021/12/04 07:08:24;;;;;;;30.63;19.07;;;4.50;99.90;;;;;;5017483;28;20258;-46
2021/12/04 07:10:51;;;;;;;27.87;17.77;;;4.50;99.90;;;;;;5001611;28;20232;-45
2021/12/04 07:13:18;;;;;;;32.53;18.87;;;4.50;99.90;;;;;;5025548;28;20452;-46
2021/12/04 07:15:46;;;;;;;27.50;19.03;;;4.50;99.90;;;;;;5021047;28;20677;-46
2021/12/04 07:18:15;;;;;;;32.20;18.97;;;4.50;99.90;;;;;;5010512;28;20481;-46
2021/12/04 07:20:42;;;;;;;32.50;18.43;;;4.50;99.90;;;;;;5039289;28;20216;-46
2021/12/04 07:23:09;;;;;;;30.73;18.67;;;4.50;99.90;;;;;;5015939;28;20229;-47
2021/12/04 07:25:36;;;;;;;29.50;19.23;;;4.50;99.90;;;;;;5025771;28;20228;-46
2021/12/04 07:28:03;;;;;;;32.60;20.43;;;4.50;99.90;;;;;;5017045;28;20707;-46
2021/12/04 07:30:29;;;;;;;35.00;20.93;;;4.50;99.90;;;;;;5011261;28;20702;-47
2021/12/04 07:32:56;;;;;;;38.30;23.63;;;4.50;99.90;;;;;;5026914;28;20903;-46
2021/12/04 07:35:25;;;;;;;36.10;20.60;;;4.50;99.90;;;;;;5035710;28;20433;-45
2021/12/04 07:37:52;;;;;;;32.87;19.43;;;4.50;99.90;;;;;;5012493;28;20595;-47
2021/12/04 07:40:19;;;;;;;35.93;20.93;;;4.50;99.90;;;;;;5010906;28;20433;-47
2021/12/04 07:42:45;;;;;;;33.77;19.67;;;4.50;99.90;;;;;;5020570;28;20773;-47
2021/12/04 07:45:13;;;;;;;34.97;20.37;;;4.50;99.90;;;;;;5030053;28;20415;-47
2021/12/04 07:47:40;;;;;;;31.23;19.30;;;4.50;99.90;;;;;;5028204;28;20227;-46
2021/12/04 07:50:09;;;;;;;33.13;19.63;;;4.50;99.90;;;;;;5015914;28;20267;-46
2021/12/04 07:52:38;;;;;;;35.20;20.27;;;4.50;99.90;;;;;;5034150;28;20224;-46
2021/12/04 07:55:07;;;;;;;35.43;20.23;;;4.50;99.90;;;;;;5001534;28;20215;-46
2021/12/04 07:57:34;;;;;;;36.87;20.67;;;4.50;99.90;;;;;;5032347;28;20204;-47
2021/12/04 08:00:01;;;;;;;45.07;21.37;;;4.50;99.90;;;;;;5020991;28;20213;-47
2021/12/04 08:02:28;;;;;;;36.43;20.23;;;4.50;99.90;;;;;;5011884;28;20348;-46
2021/12/04 08:04:54;;;;;;;35.63;20.07;;;4.50;99.90;;;;;;5041332;28;20227;-43
2021/12/04 08:07:21;;;;;;;35.73;20.63;;;4.50;99.90;;;;;;5022790;28;20214;-44
2021/12/04 08:09:49;;;;;;;37.43;20.70;;;4.50;99.90;;;;;;5010044;28;20218;-44
2021/12/04 08:12:16;;;;;;;37.30;21.00;;;4.50;99.90;;;;;;5016662;28;20416;-44
2021/12/04 08:14:43;;;;;;;42.90;20.43;;;4.50;99.90;;;;;;5019396;28;20209;-43
2021/12/04 08:17:10;;;;;;;39.63;20.53;;;4.50;99.90;;;;;;5033996;28;21589;-44
2021/12/04 08:19:38;;;;;;;40.43;20.83;;;4.50;99.90;;;;;;5018083;28;20238;-44
2021/12/04 08:22:05;;;;;;;36.30;20.80;;;4.60;99.90;;;;;;5029264;28;22837;-44
2021/12/04 08:24:32;;;;;;;34.43;19.33;;;4.60;99.90;;;;;;5014492;28;20886;-44
2021/12/04 08:27:01;;;;;;;35.77;20.87;;;4.60;99.90;;;;;;5004778;28;20217;-44
2021/12/04 08:29:28;;;;;;;34.40;18.80;;;4.60;99.90;;;;;;5013000;28;20256;-44
2021/12/04 08:31:55;;;;;;;35.30;19.63;;;4.60;99.90;;;;;;5037455;28;20196;-44
2021/12/04 08:34:23;;;;;;;36.30;18.73;;;4.60;99.90;;;;;;5006704;28;20229;-44
2021/12/04 08:36:52;;;;;;;37.10;19.43;;;4.60;99.90;;;;;;5038186;28;20281;-44
2021/12/04 08:39:20;;;;;;;30.83;19.03;;;4.60;99.90;;;;;;5029334;28;20793;-43
2021/12/04 08:41:47;;;;;;;34.40;19.30;;;4.60;99.90;;;;;;5003523;28;20212;-44
2021/12/04 08:44:16;;;;;;;34.07;19.63;;;4.60;99.90;;;;;;5021983;28;20225;-44
2021/12/04 08:46:43;;;;;;;36.27;20.80;;;4.60;99.90;;;;;;5021802;28;20741;-44
2021/12/04 08:49:10;;;;;;;34.90;19.70;;;4.70;99.90;;;;;;5022768;28;20204;-44
2021/12/04 08:51:37;;;;;;;35.17;20.47;;;4.70;99.90;;;;;;5033117;28;20254;-44
2021/12/04 08:54:06;;;;;;;37.93;23.43;;;4.70;99.90;;;;;;5039735;28;20715;-43
2021/12/04 08:56:34;;;;;;;39.77;22.57;;;4.70;99.90;;;;;;5002386;28;20200;-44
2021/12/04 08:59:01;;;;;;;33.60;21.87;;;4.70;99.90;;;;;;5018621;28;20208;-44
2021/12/04 09:01:33;;;;;;;32.40;20.97;;;4.60;99.90;;;;;;5009342;28;20224;-44
2021/12/04 09:04:06;;;;;;;34.07;19.87;;;4.60;99.90;;;;;;5037281;28;20561;-41
2021/12/04 09:06:35;;;;;;;32.50;19.40;;;4.60;99.90;;;;;;5031682;28;20309;-41
2021/12/04 09:09:02;;;;;;;32.63;20.20;;;4.70;99.90;;;;;;5037688;28;20208;-41
2021/12/04 09:11:33;;;;;;;33.10;19.03;;;4.60;99.90;;;;;;5018247;28;20468;-41
2021/12/04 09:14:01;;;;;;;32.00;19.20;;;4.60;99.90;;;;;;5013950;28;20243;-41
2021/12/04 09:16:29;;;;;;;32.73;19.30;;;4.60;99.90;;;;;;5004749;28;20406;-41
2021/12/04 09:18:56;;;;;;;31.37;17.87;;;4.70;99.90;;;;;;5041373;28;20585;-41
2021/12/04 09:21:24;;;;;;;30.63;17.23;;;4.70;99.90;;;;;;5033171;28;20819;-41
2021/12/04 09:24:00;;;;;;;28.17;16.47;;;4.70;99.90;;;;;;5044859;28;20212;-41
2021/12/04 09:26:38;;;;;;;24.83;15.43;;;4.60;99.90;;;;;;5016694;28;20217;-41
2021/12/04 09:29:11;;;;;;;25.20;15.83;;;4.70;99.90;;;;;;5017048;28;20224;-42
2021/12/04 09:31:54;;;;;;;23.60;14.53;;;4.70;99.90;;;;;;5007082;28;20523;-41
2021/12/04 09:34:56;;;;;;;25.20;14.70;;;4.70;99.90;;;;;;5030058;28;20241;-41
2021/12/04 09:40:38;;;;;;;26.17;15.73;;;4.80;99.90;;;;;;5021386;28;20955;-41
2021/12/04 09:59:55;;;;;;;22.37;14.03;;;4.80;99.90;;;;;;5032869;28;20207;-41
2021/12/04 10:02:32;;;;;;;18.87;11.77;;;4.80;99.90;;;;;;5030018;28;20749;-41
2021/12/04 10:19:17;;;;;;;16.27;11.37;;;4.80;99.90;;;;;;5039082;28;20219;-42
2021/12/04 10:22:01;;;;;;;13.97;10.40;;;4.80;99.90;;;;;;5032209;28;21179;-41
2021/12/04 10:24:46;;;;;;;16.27;10.67;;;4.90;99.90;;;;;;5040784;28;20271;-43
2021/12/04 10:33:14;;;;;;;16.83;11.17;;;4.90;99.90;;;;;;5027971;28;20755;-43
2021/12/04 10:35:41;;;;;;;15.80;11.30;;;4.90;99.90;;;;;;5036024;28;21252;-43
2021/12/04 10:38:14;;;;;;;15.13;10.63;;;4.90;99.90;;;;;;5048931;28;20221;-44
2021/12/04 10:40:43;;;;;;;15.97;10.73;;;4.90;99.90;;;;;;5043605;28;20581;-43
2021/12/04 10:43:14;;;;;;;22.53;12.77;;;4.80;99.90;;;;;;5036499;28;20454;-43
2021/12/04 10:45:44;;;;;;;19.73;13.43;;;4.90;99.90;;;;;;5044941;28;20208;-43
2021/12/04 10:48:18;;;;;;;16.70;11.80;;;4.90;99.90;;;;;;5018136;28;20208;-43
2021/12/04 10:50:50;;;;;;;16.43;10.90;;;4.90;99.90;;;;;;5043069;28;20207;-44
2021/12/04 10:53:21;;;;;;;20.67;12.20;;;4.90;99.90;;;;;;5044837;28;20227;-43
2021/12/04 10:55:53;;;;;;;24.30;13.57;;;4.90;99.90;;;;;;5045059;28;20632;-43
2021/12/04 11:03:57;;;;;;;21.43;11.37;;;5.00;99.90;;;;;;5016477;28;20228;-44
2021/12/04 11:34:55;;;;;;;24.23;13.17;;;5.00;99.90;;;;;;5019072;28;20197;-43
2021/12/04 11:42:53;;;;;;;21.53;13.40;;;4.90;99.90;;;;;;5032997;28;20225;-43
2021/12/04 11:45:27;;;;;;;21.00;12.43;;;4.90;99.90;;;;;;5030933;28;20792;-43
2021/12/04 11:47:55;;;;;;;21.73;13.23;;;4.90;99.90;;;;;;5015610;28;20251;-43
2021/12/04 11:50:24;;;;;;;18.40;12.37;;;4.90;99.90;;;;;;5020196;28;20686;-43
2021/12/04 11:52:54;;;;;;;25.50;13.67;;;4.90;99.90;;;;;;5027954;28;20229;-44
2021/12/04 11:55:23;;;;;;;20.07;12.50;;;4.90;99.90;;;;;;5042414;28;20223;-43
2021/12/04 11:57:51;;;;;;;22.83;12.60;;;4.90;99.90;;;;;;5025127;28;20236;-44
2021/12/04 12:00:23;;;;;;;21.53;13.07;;;4.90;99.90;;;;;;5018540;28;23650;-43
2021/12/04 12:02:51;;;;;;;21.30;13.00;;;4.90;99.90;;;;;;5012249;28;20242;-48
2021/12/04 12:05:21;;;;;;;21.93;12.90;;;4.90;99.90;;;;;;5015404;28;20224;-48
2021/12/04 12:07:55;;;;;;;23.83;13.67;;;4.90;99.90;;;;;;5030575;28;20243;-48
2021/12/04 12:10:25;;;;;;;23.93;13.93;;;4.90;99.90;;;;;;5018828;28;20278;-49
2021/12/04 12:12:56;;;;;;;20.53;13.10;;;4.90;99.90;;;;;;5025544;28;20735;-48
2021/12/04 12:15:30;;;;;;;20.53;13.47;;;5.00;99.90;;;;;;5005971;28;20213;-48
2021/12/04 12:17:57;;;;;;;25.67;14.60;;;5.00;99.90;;;;;;5033651;28;20207;-48
2021/12/04 12:20:39;;;;;;;24.07;13.50;;;5.00;99.90;;;;;;5007898;28;20768;-48
2021/12/04 12:23:11;;;;;;;25.67;15.90;;;5.00;99.90;;;;;;5041950;28;20259;-48
2021/12/04 12:36:02;;;;;;;21.93;14.03;;;5.10;99.90;;;;;;5002913;28;21007;-48
2021/12/04 12:37:17;;;;;;;18.23;13.83;;;5.10;99.90;;;;;;5015348;28;20210;-47
2021/12/04 12:39:57;;;;;;;16.73;12.53;;;5.10;99.90;;;;;;5011087;28;20231;-48
2021/12/04 12:42:30;;;;;;;19.40;12.67;;;5.10;99.90;;;;;;5034873;28;20196;-48
2021/12/04 12:45:16;;;;;;;15.90;11.77;;;5.20;99.90;;;;;;5026403;28;20777;-48
2021/12/04 12:47:52;;;;;;;18.30;11.97;;;5.20;99.90;;;;;;5040202;28;20209;-48
2021/12/04 12:50:27;;;;;;;17.87;11.90;;;5.20;99.90;;;;;;5020718;28;20215;-48
2021/12/04 12:53:01;;;;;;;18.13;12.43;;;5.20;99.90;;;;;;5047140;28;20709;-48
2021/12/04 12:55:35;;;;;;;19.83;12.23;;;5.20;99.90;;;;;;5024267;28;21689;-48
2021/12/04 12:58:17;;;;;;;21.13;13.37;;;5.10;99.90;;;;;;5045729;28;20208;-48
2021/12/04 13:11:58;;;;;;;17.00;11.77;;;5.20;99.90;;;;;;5024780;28;20671;-48
2021/12/04 13:14:28;;;;;;;20.13;11.33;;;5.20;99.90;;;;;;5046488;28;20523;-47
2021/12/04 13:17:03;;;;;;;22.00;12.97;;;5.20;99.90;;;;;;5033571;28;20697;-46
2021/12/04 13:19:31;;;;;;;17.77;12.37;;;5.20;99.90;;;;;;5044412;28;20352;-45
2021/12/04 13:22:02;;;;;;;21.40;13.80;;;5.20;99.90;;;;;;5022924;28;21398;-46
2021/12/04 13:24:31;;;;;;;21.13;12.60;;;5.20;99.90;;;;;;5033291;28;20245;-46
2021/12/04 13:29:37;;;;;;;21.87;12.90;;;5.20;99.90;;;;;;5040264;28;20275;-45
2021/12/04 13:32:05;;;;;;;16.80;11.53;;;5.20;99.90;;;;;;5035475;28;20216;-46
2021/12/04 13:34:33;;;;;;;17.87;11.13;;;5.20;99.90;;;;;;5033381;28;20362;-46
2021/12/04 13:37:01;;;;;;;18.50;12.33;;;5.30;99.90;;;;;;5024058;28;20342;-46
2021/12/04 13:39:28;;;;;;;20.67;12.37;;;5.30;99.90;;;;;;5036446;28;20282;-45
2021/12/04 13:41:56;;;;;;;20.30;13.03;;;5.20;99.90;;;;;;5034047;28;20220;-46
2021/12/04 13:44:26;;;;;;;18.50;12.77;;;5.20;99.90;;;;;;5045307;28;20243;-46
2021/12/04 13:46:56;;;;;;;18.83;12.10;;;5.20;99.90;;;;;;5030667;28;22037;-46
2021/12/04 13:49:30;;;;;;;18.93;12.27;;;5.20;99.90;;;;;;5045477;28;20205;-46
2021/12/04 13:51:59;;;;;;;17.27;12.30;;;5.30;99.90;;;;;;5030945;28;20337;-45
2021/12/04 13:54:29;;;;;;;22.53;12.30;;;5.20;99.90;;;;;;5032197;28;20239;-45
2021/12/04 13:56:56;;;;;;;19.17;12.77;;;5.20;99.90;;;;;;5038633;28;20523;-46
2021/12/04 13:59:27;;;;;;;20.50;12.97;;;5.10;99.90;;;;;;5047925;28;20210;-46
2021/12/04 14:01:55;;;;;;;17.00;11.50;;;5.10;99.90;;;;;;5031691;28;20201;-43
2021/12/04 14:04:22;;;;;;;17.03;11.40;;;5.20;99.90;;;;;;5040764;28;20871;-43
2021/12/04 14:06:51;;;;;;;14.73;11.50;;;5.20;99.90;;;;;;5012466;28;20213;-43
2021/12/04 14:09:19;;;;;;;15.87;11.33;;;5.20;99.90;;;;;;5026611;28;20208;-43
2021/12/04 14:11:47;;;;;;;13.63;10.70;;;5.20;99.90;;;;;;5025805;28;20209;-43
2021/12/04 14:14:19;;;;;;;14.47;10.50;;;5.10;99.90;;;;;;5039379;28;20233;-43
2021/12/04 14:16:51;;;;;;;15.73;11.00;;;5.10;99.90;;;;;;5038385;28;20743;-44
2021/12/04 14:19:21;;;;;;;16.10;11.10;;;5.10;99.90;;;;;;5022434;28;20212;-43
2021/12/04 14:21:58;;;;;;;14.83;10.73;;;5.10;99.90;;;;;;5040824;28;20266;-44
2021/12/04 14:24:27;;;;;;;16.47;11.87;;;5.10;99.90;;;;;;5009112;28;20224;-44
2021/12/04 14:26:54;;;;;;;16.70;11.87;;;5.10;99.90;;;;;;5043520;28;20542;-44
2021/12/04 14:29:21;;;;;;;14.17;10.77;;;5.10;99.90;;;;;;5031854;28;20576;-44
2021/12/04 14:31:49;;;;;;;13.80;10.83;;;5.10;99.90;;;;;;5035643;28;20208;-44
2021/12/04 14:34:21;;;;;;;18.37;12.47;;;5.10;99.90;;;;;;5028642;28;20239;-44
2021/12/04 14:36:58;;;;;;;16.73;11.73;;;5.00;99.90;;;;;;5033517;28;20225;-44
2021/12/04 14:39:25;;;;;;;14.80;10.90;;;5.00;99.90;;;;;;5035825;28;20200;-43
2021/12/04 14:41:52;;;;;;;13.77;10.77;;;5.00;99.90;;;;;;5035697;28;20209;-44
2021/12/04 14:44:19;;;;;;;14.13;11.27;;;5.00;99.90;;;;;;5032721;28;20336;-44
2021/12/04 14:46:47;;;;;;;18.03;10.63;;;5.00;99.90;;;;;;5050019;28;20202;-44
2021/12/04 14:49:15;;;;;;;14.90;10.40;;;5.00;99.90;;;;;;5045421;28;20201;-44
2021/12/04 14:51:42;;;;;;;16.23;11.33;;;5.00;99.90;;;;;;5033069;28;20239;-44
2021/12/04 14:54:10;;;;;;;17.20;10.40;;;5.00;99.90;;;;;;5036314;28;20225;-43
2021/12/04 14:56:37;;;;;;;15.50;11.97;;;5.10;99.90;;;;;;5021660;28;20228;-43
2021/12/04 14:59:14;;;;;;;14.47;10.63;;;5.00;99.90;;;;;;5019660;28;20217;-43
2021/12/04 15:01:42;;;;;;;14.77;10.80;;;5.00;99.90;;;;;;5041069;28;20203;-43
2021/12/04 15:04:09;;;;;;;13.80;10.00;;;5.00;99.90;;;;;;5029954;28;20238;-46
2021/12/04 15:06:39;;;;;;;15.73;10.23;;;4.90;99.90;;;;;;5038616;28;20213;-46
2021/12/04 15:09:10;;;;;;;12.37;9.83;;;4.90;99.90;;;;;;5038889;28;20208;-42
2021/12/04 15:11:39;;;;;;;14.07;10.47;;;4.90;99.90;;;;;;5007916;28;20215;-42
2021/12/04 15:14:09;;;;;;;13.40;10.17;;;4.90;99.90;;;;;;5020938;28;20923;-42
2021/12/04 15:16:41;;;;;;;16.40;9.83;;;4.90;99.90;;;;;;5026249;28;20228;-42
2021/12/04 15:19:17;;;;;;;13.20;9.50;;;4.90;99.90;;;;;;5043457;28;20277;-42
2021/12/04 15:21:50;;;;;;;11.70;9.20;;;4.90;99.90;;;;;;5011497;28;20686;-42